createdAt,value
2022-10-14T00:00:10.013Z,101335.06
2022-10-14T00:02:39.053Z,101339.66
2022-10-14T00:05:08.738Z,101340.50
2022-10-14T00:07:36.677Z,101335.06
2022-10-14T00:10:04.733Z,101337.59
2022-10-14T00:12:32.464Z,101338.44
2022-10-14T00:15:00.453Z,101346.41
2022-10-14T00:17:28.169Z,101341.09
2022-10-14T00:19:57.272Z,101345.41
2022-10-14T00:22:25.153Z,101337.47
2022-10-14T00:24:52.963Z,101340.25
2022-10-14T00:27:20.931Z,101343.88
2022-10-14T00:29:48.710Z,101338.72
2022-10-14T00:32:16.318Z,101337.13
2022-10-14T00:34:44.144Z,101345.09
2022-10-14T00:37:13.100Z,101342.31
2022-10-14T00:39:40.839Z,101337.97
2022-10-14T00:42:11.319Z,101344.38
2022-10-14T00:45:01.704Z,101348.16
2022-10-14T00:47:29.766Z,101343.22
2022-10-14T00:49:58.184Z,101344.34
2022-10-14T00:52:27.857Z,101339.25
2022-10-14T00:54:58.341Z,101337.94
2022-10-14T00:57:27.191Z,101341.44
2022-10-14T00:59:58.001Z,101334.31
2022-10-14T01:02:25.647Z,101333.34
2022-10-14T01:04:53.343Z,101336.75
2022-10-14T01:07:30.447Z,101339.25
2022-10-14T01:10:05.374Z,101326.97
2022-10-14T01:12:37.267Z,101325.75
2022-10-14T01:15:08.809Z,101329.09
2022-10-14T01:17:42.254Z,101327.44
2022-10-14T01:20:25.025Z,101320.44
2022-10-14T01:23:03.061Z,101316.66
2022-10-14T01:25:33.870Z,101313.19
2022-10-14T01:28:16.474Z,101303.53
2022-10-14T01:30:46.925Z,101313.56
2022-10-14T01:33:17.211Z,101316.94
2022-10-14T01:35:52.398Z,101313.88
2022-10-14T01:38:21.511Z,101307.16
2022-10-14T01:40:51.875Z,101317.50
2022-10-14T01:43:20.978Z,101317.78
2022-10-14T01:45:50.830Z,101310.78
2022-10-14T01:48:20.161Z,101309.09
2022-10-14T01:50:50.078Z,101309.34
2022-10-14T01:53:20.488Z,101295.59
2022-10-14T01:55:49.210Z,101295.59
2022-10-14T01:58:18.294Z,101311.28
2022-10-14T02:00:48.089Z,101300.78
2022-10-14T02:03:17.130Z,101303.69
2022-10-14T02:05:48.388Z,101313.47
2022-10-14T02:08:22.232Z,101320.72
2022-10-14T02:11:04.522Z,101314.81
2022-10-14T02:13:50.225Z,101313.00
2022-10-14T02:16:24.916Z,101306.97
2022-10-14T02:18:58.198Z,101313.97
2022-10-14T02:21:30.126Z,101306.75
2022-10-14T02:24:01.325Z,101303.13
2022-10-14T02:26:29.614Z,101292.50
2022-10-14T02:28:58.060Z,101295.00
2022-10-14T02:31:25.921Z,101285.38
2022-10-14T02:33:57.229Z,101303.81
2022-10-14T02:36:26.263Z,101301.31
2022-10-14T02:38:54.764Z,101296.97
2022-10-14T02:41:23.942Z,101300.59
2022-10-14T02:43:51.561Z,101294.41
2022-10-14T02:46:21.280Z,101302.38
2022-10-14T02:48:49.013Z,101294.41
2022-10-14T02:51:18.375Z,101293.72
2022-10-14T02:53:46.005Z,101288.28
2022-10-14T02:56:14.822Z,101288.69
2022-10-14T02:58:42.445Z,101289.38
2022-10-14T03:01:10.119Z,101297.59
2022-10-14T03:03:37.761Z,101304.84
2022-10-14T03:06:05.611Z,101312.22
2022-10-14T03:08:34.625Z,101312.50
2022-10-14T03:11:02.261Z,101309.94
2022-10-14T03:13:29.920Z,101304.63
2022-10-14T03:15:58.237Z,101304.63
2022-10-14T03:18:25.902Z,101304.63
2022-10-14T03:20:53.526Z,101301.97
2022-10-14T03:23:21.129Z,101292.34
2022-10-14T03:25:50.203Z,101289.81
2022-10-14T03:28:17.810Z,101293.44
2022-10-14T03:30:45.459Z,101290.94
2022-10-14T03:33:15.020Z,101283.81
2022-10-14T03:35:43.182Z,101287.31
2022-10-14T03:38:10.787Z,101277.53
2022-10-14T03:40:38.363Z,101276.69
2022-10-14T03:43:07.442Z,101278.63
2022-10-14T03:45:35.095Z,101276.94
2022-10-14T03:48:02.785Z,101274.28
2022-10-14T03:50:30.400Z,101272.59
2022-10-14T03:52:57.968Z,101256.81
2022-10-14T03:55:25.988Z,101265.38
2022-10-14T03:57:53.601Z,101261.84
2022-10-14T04:00:22.834Z,101260.06
2022-10-14T04:02:50.490Z,101258.34
2022-10-14T04:05:18.313Z,101245.09
2022-10-14T04:07:45.912Z,101232.78
2022-10-14T04:10:13.567Z,101234.47
2022-10-14T04:12:41.236Z,101209.84
2022-10-14T04:15:09.582Z,101229.31
2022-10-14T04:17:38.569Z,101222.31
2022-10-14T04:20:07.255Z,101218.00
2022-10-14T04:22:34.940Z,101230.28
2022-10-14T04:25:02.553Z,101221.47
2022-10-14T04:27:30.173Z,101223.28
2022-10-14T04:29:57.790Z,101220.78
2022-10-14T04:32:25.510Z,101215.47
2022-10-14T04:34:54.938Z,101217.38
2022-10-14T04:37:22.485Z,101204.53
2022-10-14T04:39:50.104Z,101208.28
2022-10-14T04:42:17.746Z,101200.44
2022-10-14T04:44:45.335Z,101208.66
2022-10-14T04:47:12.910Z,101216.75
2022-10-14T04:49:40.579Z,101211.44
2022-10-14T04:52:09.567Z,101217.59
2022-10-14T04:54:37.182Z,101199.16
2022-10-14T04:57:04.946Z,101214.09
2022-10-14T04:59:32.580Z,101215.91
2022-10-14T05:02:00.255Z,101216.75
2022-10-14T05:04:28.057Z,101211.44
2022-10-14T05:06:55.685Z,101191.22
2022-10-14T05:09:25.137Z,101199.03
2022-10-14T05:11:52.770Z,101190.25
2022-10-14T05:14:20.770Z,101186.59
2022-10-14T05:16:48.410Z,101184.09
2022-10-14T05:19:16.423Z,101176.25
2022-10-14T05:21:44.013Z,101180.69
2022-10-14T05:24:11.629Z,101172.03
2022-10-14T05:26:40.630Z,101157.94
2022-10-14T05:29:08.260Z,101148.59
2022-10-14T05:31:35.905Z,101147.84
2022-10-14T05:34:03.520Z,101140.16
2022-10-14T05:36:31.117Z,101157.75
2022-10-14T05:38:58.874Z,101153.41
2022-10-14T05:41:26.922Z,101154.41
2022-10-14T05:43:55.959Z,101164.88
2022-10-14T05:46:23.576Z,101157.75
2022-10-14T05:48:51.268Z,101153.56
2022-10-14T05:51:21.147Z,101155.09
2022-10-14T05:53:48.837Z,101146.03
2022-10-14T05:56:16.607Z,101141.47
2022-10-14T05:58:44.266Z,101137.00
2022-10-14T06:01:13.331Z,101134.22
2022-10-14T06:03:41.028Z,101126.97
2022-10-14T06:06:10.554Z,101118.16
2022-10-14T06:08:38.214Z,101118.03
2022-10-14T06:11:06.130Z,101112.59
2022-10-14T06:13:33.776Z,101119.13
2022-10-14T06:16:04.288Z,101112.16
2022-10-14T06:18:33.375Z,101116.63
2022-10-14T06:21:01.472Z,101109.50
2022-10-14T06:23:29.540Z,101103.50
2022-10-14T06:25:57.197Z,101107.84
2022-10-14T06:28:24.909Z,101096.25
2022-10-14T06:30:52.651Z,101105.19
2022-10-14T06:33:20.679Z,101105.19
2022-10-14T06:35:50.121Z,101104.22
2022-10-14T06:38:17.725Z,101101.41
2022-10-14T06:40:45.438Z,101097.78
2022-10-14T06:43:13.069Z,101096.69
2022-10-14T06:45:40.712Z,101094.75
2022-10-14T06:48:08.450Z,101098.38
2022-10-14T06:50:36.219Z,101108.72
2022-10-14T06:53:05.360Z,101106.78
2022-10-14T06:55:33.049Z,101105.69
2022-10-14T06:58:00.730Z,101103.97
2022-10-14T07:00:28.366Z,101092.44
2022-10-14T07:02:56.008Z,101086.97
2022-10-14T07:05:23.644Z,101093.69
2022-10-14T07:07:51.321Z,101099.00
2022-10-14T07:10:20.459Z,101097.19
2022-10-14T07:12:48.097Z,101090.06
2022-10-14T07:15:15.829Z,101089.13
2022-10-14T07:17:43.426Z,101087.03
2022-10-14T07:20:12.670Z,101078.09
2022-10-14T07:22:40.612Z,101079.91
2022-10-14T07:25:09.388Z,101080.75
2022-10-14T07:27:38.457Z,101080.59
2022-10-14T07:30:07.322Z,101073.38
2022-10-14T07:32:37.122Z,101078.69
2022-10-14T07:35:05.255Z,101076.13
2022-10-14T07:37:32.992Z,101074.22
2022-10-14T07:40:00.598Z,101084.56
2022-10-14T07:42:28.251Z,101080.09
2022-10-14T07:44:58.115Z,101076.34
2022-10-14T07:47:25.741Z,101064.75
2022-10-14T07:49:53.894Z,101075.38
2022-10-14T07:52:21.581Z,101078.59
2022-10-14T07:54:49.284Z,101072.28
2022-10-14T07:57:17.102Z,101066.84
2022-10-14T07:59:44.729Z,101078.19
2022-10-14T08:02:13.906Z,101076.09
2022-10-14T08:04:41.543Z,101071.47
2022-10-14T08:07:09.185Z,101080.03
2022-10-14T08:09:37.541Z,101062.28
2022-10-14T08:12:05.586Z,101071.94
2022-10-14T08:14:33.258Z,101068.44
2022-10-14T08:17:00.878Z,101071.53
2022-10-14T08:19:30.042Z,101084.66
2022-10-14T08:21:57.657Z,101081.91
2022-10-14T08:24:25.275Z,101065.69
2022-10-14T08:26:54.378Z,101066.56
2022-10-14T08:29:23.506Z,101069.22
2022-10-14T08:31:51.327Z,101073.66
2022-10-14T08:34:21.005Z,101068.25
2022-10-14T08:36:50.289Z,101059.56
2022-10-14T08:39:19.147Z,101060.13
2022-10-14T08:42:17.345Z,101056.38
2022-10-14T08:44:48.390Z,101055.38
2022-10-14T08:47:17.368Z,101051.34
2022-10-14T08:49:53.144Z,101045.91
2022-10-14T08:52:24.660Z,101038.66
2022-10-14T08:54:56.593Z,101035.03
2022-10-14T08:57:26.660Z,101033.06
2022-10-14T08:59:54.571Z,101040.03
2022-10-14T09:02:28.904Z,101036.25
2022-10-14T09:04:56.623Z,101032.50
2022-10-14T09:07:26.103Z,101038.38
2022-10-14T09:09:57.862Z,101035.56
2022-10-14T09:12:28.099Z,101023.03
2022-10-14T09:15:09.400Z,101011.28
2022-10-14T09:17:42.707Z,100999.22
2022-10-14T09:20:19.651Z,101011.81
2022-10-14T09:22:57.521Z,101011.56
2022-10-14T09:25:25.186Z,101004.97
2022-10-14T09:27:52.801Z,101005.69
2022-10-14T09:30:20.520Z,101002.06
2022-10-14T09:32:50.126Z,101006.09
2022-10-14T09:35:23.338Z,101012.13
2022-10-14T09:37:53.015Z,100999.53
2022-10-14T09:40:26.804Z,101004.84
2022-10-14T09:42:58.378Z,101010.59
2022-10-14T09:45:26.923Z,101008.47
2022-10-14T09:47:56.602Z,100990.28
2022-10-14T09:50:29.505Z,100998.38
2022-10-14T09:53:02.734Z,101007.06
2022-10-14T09:55:30.853Z,100999.78
2022-10-14T09:58:07.322Z,100991.66
2022-10-14T10:00:37.737Z,100992.50
2022-10-14T10:03:06.905Z,100992.50
2022-10-14T10:05:35.761Z,100979.22
2022-10-14T10:08:11.106Z,100981.63
2022-10-14T10:10:38.811Z,100986.63
2022-10-14T10:13:22.089Z,100974.63
2022-10-14T10:15:58.563Z,100990.81
2022-10-14T10:18:26.368Z,100983.56
2022-10-14T10:21:06.619Z,100983.56
2022-10-14T10:23:36.681Z,100979.06
2022-10-14T10:26:27.066Z,100975.69
2022-10-14T10:28:57.418Z,100967.03
2022-10-14T10:31:35.313Z,100963.97
2022-10-14T10:34:10.465Z,100967.59
2022-10-14T10:36:41.637Z,100973.75
2022-10-14T10:39:19.768Z,100971.78
2022-10-14T10:41:58.424Z,100962.00
2022-10-14T10:44:47.679Z,100950.81
2022-10-14T10:47:31.419Z,100950.81
2022-10-14T10:50:17.925Z,100956.97
2022-10-14T10:53:01.319Z,100957.50
2022-10-14T10:55:36.528Z,100957.25
2022-10-14T10:58:16.720Z,100943.50
2022-10-14T11:00:49.715Z,100945.75
2022-10-14T11:03:32.211Z,100931.72
2022-10-14T11:06:03.870Z,100933.13
2022-10-14T11:09:11.907Z,100927.50
2022-10-14T11:12:07.886Z,100924.72
2022-10-14T11:14:48.432Z,100920.81
2022-10-14T11:17:22.040Z,100925.00
2022-10-14T11:19:54.171Z,100916.44
2022-10-14T11:22:38.649Z,100910.16
2022-10-14T11:25:17.542Z,100905.53
2022-10-14T11:27:52.477Z,100908.75
2022-10-14T11:30:21.970Z,100906.94
2022-10-14T11:33:16.598Z,100901.91
2022-10-14T11:35:51.870Z,100901.78
2022-10-14T11:38:29.340Z,100899.78
2022-10-14T11:41:01.522Z,100897.13
2022-10-14T11:43:39.449Z,100888.75
2022-10-14T11:46:09.610Z,100900.94
2022-10-14T11:48:41.506Z,100892.66
2022-10-14T11:51:12.693Z,100892.50
2022-10-14T11:53:47.419Z,100889.84
2022-10-14T11:56:25.782Z,100889.16
2022-10-14T11:58:55.193Z,100883.53
2022-10-14T12:01:27.602Z,100881.03
2022-10-14T12:03:59.822Z,100874.88
2022-10-14T12:06:30.766Z,100868.72
2022-10-14T12:09:01.340Z,100872.06
2022-10-14T12:11:32.239Z,100867.56
2022-10-14T12:14:06.203Z,100856.41
2022-10-14T12:16:34.284Z,100858.31
2022-10-14T12:19:02.093Z,100863.66
2022-10-14T12:21:34.676Z,100853.00
2022-10-14T12:24:05.959Z,100860.66
2022-10-14T12:26:47.191Z,100853.53
2022-10-14T12:29:18.822Z,100844.44
2022-10-14T12:31:50.599Z,100832.81
2022-10-14T12:34:36.146Z,100834.16
2022-10-14T12:37:50.073Z,100828.00
2022-10-14T12:40:32.507Z,100833.03
2022-10-14T12:43:15.816Z,100827.84
2022-10-14T12:46:02.297Z,100824.97
2022-10-14T12:48:32.874Z,100831.66
2022-10-14T12:51:12.518Z,100832.50
2022-10-14T12:53:48.277Z,100826.19
2022-10-14T12:56:29.610Z,100830.50
2022-10-14T12:59:01.248Z,100823.53
2022-10-14T13:01:33.769Z,100819.88
2022-10-14T13:04:07.063Z,100817.22
2022-10-14T13:06:37.581Z,100813.59
2022-10-14T13:09:34.633Z,100809.09
2022-10-14T13:12:46.966Z,100804.63
2022-10-14T13:15:37.132Z,100792.44
2022-10-14T13:18:51.317Z,100789.34
2022-10-14T13:21:32.127Z,100784.00
2022-10-14T13:24:01.754Z,100790.16
2022-10-14T13:26:37.828Z,100774.66
2022-10-14T13:29:18.871Z,100768.72
2022-10-14T13:31:53.959Z,100775.03
2022-10-14T13:34:31.001Z,100764.13
2022-10-14T13:37:05.428Z,100757.94
2022-10-14T13:39:34.001Z,100757.94
2022-10-14T13:42:02.494Z,100755.13
2022-10-14T13:44:30.508Z,100748.16
2022-10-14T13:46:58.214Z,100753.00
2022-10-14T13:49:31.924Z,100750.34
2022-10-14T13:52:01.643Z,100745.84
2022-10-14T13:54:31.000Z,100747.84
2022-10-14T14:02:40.824Z,100741.13
2022-10-14T14:05:15.824Z,100739.19
2022-10-14T14:08:30.108Z,100732.84
2022-10-14T14:10:32.314Z,100731.88
2022-10-14T14:13:01.176Z,100731.88
2022-10-14T14:15:30.159Z,100731.88
2022-10-14T14:17:57.782Z,100729.19
2022-10-14T14:20:29.693Z,100723.50
2022-10-14T14:22:59.329Z,100728.81
2022-10-14T14:25:34.647Z,100725.47
2022-10-14T14:28:05.643Z,100716.50
2022-10-14T14:30:35.148Z,100711.19
2022-10-14T14:33:04.347Z,100717.34
2022-10-14T14:35:33.407Z,100706.69
2022-10-14T14:38:01.389Z,100712.03
2022-10-14T14:40:30.965Z,100703.22
2022-10-14T14:43:00.036Z,100706.88
2022-10-14T14:45:30.488Z,100705.19
2022-10-14T14:47:59.564Z,100708.00
2022-10-14T14:50:31.155Z,100700.88
2022-10-14T14:53:03.433Z,100707.84
2022-10-14T14:55:36.473Z,100702.38
2022-10-14T14:58:05.423Z,100702.38
2022-10-14T15:00:33.354Z,100696.06
2022-10-14T15:03:02.458Z,100693.25
2022-10-14T15:05:30.587Z,100677.16
2022-10-14T15:07:58.275Z,100674.50
2022-10-14T15:10:29.559Z,100675.59
2022-10-14T15:12:59.015Z,100667.78
2022-10-14T15:15:29.899Z,100677.28
2022-10-14T15:18:14.010Z,100668.63
2022-10-14T15:20:42.743Z,100663.00
2022-10-14T15:23:46.963Z,100653.22
2022-10-14T15:26:30.902Z,100652.97
2022-10-14T15:29:07.176Z,100661.03
2022-10-14T15:33:58.802Z,100654.03
2022-10-14T15:36:27.045Z,100653.22
2022-10-14T15:38:58.314Z,100649.56
2022-10-14T15:41:26.170Z,100657.38
2022-10-14T15:43:53.793Z,100652.88
2022-10-14T15:46:39.083Z,100646.72
2022-10-14T15:49:19.144Z,100647.56
2022-10-14T15:51:46.742Z,100648.72
2022-10-14T15:56:11.304Z,100648.38
2022-10-14T15:58:39.008Z,100642.25
2022-10-14T16:01:07.373Z,100636.09
2022-10-14T16:03:37.314Z,100636.91
2022-10-14T16:06:09.022Z,100635.09
2022-10-14T16:08:36.664Z,100623.63
2022-10-14T16:11:04.741Z,100627.09
2022-10-14T16:13:33.730Z,100630.44
2022-10-14T16:16:02.629Z,100622.47
2022-10-14T16:18:30.258Z,100614.47
2022-10-14T16:20:57.893Z,100624.44
2022-10-14T16:23:29.584Z,100613.97
2022-10-14T16:26:00.818Z,100620.13
2022-10-14T16:28:28.560Z,100606.66
2022-10-14T16:30:57.614Z,100605.50
2022-10-14T16:33:25.272Z,100611.53
2022-10-14T16:35:54.795Z,100602.72
2022-10-14T16:38:24.108Z,100608.84
2022-10-14T16:40:55.384Z,100613.34
2022-10-14T16:43:23.064Z,100621.16
2022-10-14T16:45:50.694Z,100616.69
2022-10-14T16:48:19.894Z,100619.50
2022-10-14T16:50:50.037Z,100617.69
2022-10-14T16:53:35.510Z,100614.19
2022-10-14T16:56:03.233Z,100616.13
2022-10-14T16:58:31.516Z,100615.31
2022-10-14T17:00:59.295Z,100614.47
2022-10-14T17:03:29.558Z,100614.47
2022-10-14T17:05:58.763Z,100616.13
2022-10-14T17:08:26.476Z,100616.13
2022-10-14T17:10:58.252Z,100613.66
2022-10-14T17:13:25.927Z,100614.47
2022-10-14T17:15:59.966Z,100626.78
2022-10-14T17:18:33.695Z,100618.13
2022-10-14T17:21:02.423Z,100618.13
2022-10-14T17:23:31.151Z,100634.94
2022-10-14T17:25:58.793Z,100632.44
2022-10-14T17:28:26.691Z,100632.59
2022-10-14T17:30:54.422Z,100630.75
2022-10-14T17:33:23.033Z,100642.41
2022-10-14T17:35:58.011Z,100639.91
2022-10-14T17:38:26.018Z,100642.69
2022-10-14T17:40:53.860Z,100651.00
2022-10-14T17:43:21.486Z,100638.69
2022-10-14T17:45:49.051Z,100638.69
2022-10-14T17:48:17.141Z,100641.19
2022-10-14T17:50:50.998Z,100624.84
2022-10-14T17:53:19.995Z,100635.03
2022-10-14T17:55:47.708Z,100640.34
2022-10-14T17:58:15.418Z,100638.69
2022-10-14T18:00:43.490Z,100639.69
2022-10-14T18:03:13.348Z,100631.69
2022-10-14T18:05:43.957Z,100630.03
2022-10-14T18:08:14.596Z,100630.03
2022-10-14T18:10:43.938Z,100634.53
2022-10-14T18:13:11.550Z,100643.47
2022-10-14T18:15:39.167Z,100633.81
2022-10-14T18:18:07.053Z,100639.31
2022-10-14T18:20:36.931Z,100645.44
2022-10-14T18:23:04.539Z,100653.59
2022-10-14T18:25:32.451Z,100656.41
2022-10-14T18:28:01.462Z,100653.91
2022-10-14T18:30:29.121Z,100655.72
2022-10-14T18:32:57.215Z,100650.72
2022-10-14T18:35:24.860Z,100652.53
2022-10-14T18:37:52.515Z,100650.88
2022-10-14T18:40:21.456Z,100641.06
2022-10-14T18:42:49.047Z,100636.75
2022-10-14T18:45:18.733Z,100630.59
2022-10-14T18:47:47.583Z,100630.59
2022-10-14T18:50:15.416Z,100619.25
2022-10-14T18:52:43.049Z,100621.78
2022-10-14T18:55:10.797Z,100617.56
2022-10-14T18:57:38.448Z,100617.56
2022-10-14T19:00:09.447Z,100623.72
2022-10-14T19:02:41.057Z,100630.03
2022-10-14T19:05:10.659Z,100622.06
2022-10-14T19:07:38.925Z,100616.75
2022-10-14T19:10:07.418Z,100615.06
2022-10-14T19:12:44.413Z,100615.25
2022-10-14T19:15:12.725Z,100607.59
2022-10-14T19:17:42.772Z,100611.22
2022-10-14T19:20:10.779Z,100612.91
2022-10-14T19:22:44.668Z,100617.50
2022-10-14T19:25:12.513Z,100615.84
2022-10-14T19:27:40.176Z,100616.81
2022-10-14T19:30:10.032Z,100627.59
2022-10-14T19:32:37.718Z,100628.59
2022-10-14T19:35:07.103Z,100624.41
2022-10-14T19:37:34.807Z,100617.41
2022-10-14T19:40:02.508Z,100618.56
2022-10-14T19:42:30.142Z,100610.75
2022-10-14T19:44:57.804Z,100612.72
2022-10-14T19:47:25.712Z,100608.38
2022-10-14T19:49:53.542Z,100602.38
2022-10-14T19:52:22.640Z,100600.72
2022-10-14T19:54:50.240Z,100609.69
2022-10-14T19:57:17.829Z,100597.41
2022-10-14T19:59:45.399Z,100593.19
2022-10-14T20:02:13.026Z,100595.03
2022-10-14T20:04:40.646Z,100593.19
2022-10-14T20:07:08.341Z,100597.84
2022-10-14T20:09:37.477Z,100596.16
2022-10-14T20:12:05.315Z,100589.88
2022-10-14T20:14:33.021Z,100599.66
2022-10-14T20:17:01.876Z,100593.81
2022-10-14T20:19:29.517Z,100599.81
2022-10-14T20:21:57.555Z,100592.00
2022-10-14T20:24:25.234Z,100594.66
2022-10-14T20:26:54.160Z,100597.44
2022-10-14T20:29:21.875Z,100594.94
2022-10-14T20:31:49.483Z,100594.94
2022-10-14T20:34:17.095Z,100602.91
2022-10-14T20:36:44.776Z,100611.22
2022-10-14T20:39:12.542Z,100615.69
2022-10-14T20:41:40.158Z,100615.97
2022-10-14T20:44:09.196Z,100613.47
2022-10-14T20:46:36.813Z,100604.81
2022-10-14T20:49:04.457Z,100598.69
2022-10-14T20:51:32.118Z,100599.78
2022-10-14T20:54:03.965Z,100599.78
2022-10-14T20:56:33.646Z,100598.13
2022-10-14T20:59:02.734Z,100593.97
2022-10-14T21:01:31.966Z,100597.63
2022-10-14T21:04:01.344Z,100599.28
2022-10-14T21:06:29.123Z,100597.63
2022-10-14T21:08:56.778Z,100609.06
2022-10-14T21:11:26.182Z,100603.22
2022-10-14T21:13:54.885Z,100605.88
2022-10-14T21:16:24.849Z,100597.91
2022-10-14T21:18:57.913Z,100598.88
2022-10-14T21:21:27.489Z,100608.69
2022-10-14T21:23:55.317Z,100601.03
2022-10-14T21:26:23.628Z,100597.38
2022-10-14T21:28:51.309Z,100613.00
2022-10-14T21:31:19.931Z,100615.66
2022-10-14T21:33:48.102Z,100601.53
2022-10-14T21:36:17.346Z,100606.84
2022-10-14T21:38:45.131Z,100603.38
2022-10-14T21:41:13.170Z,100603.38
2022-10-14T21:43:41.168Z,100595.41
2022-10-14T21:46:10.099Z,100584.94
2022-10-14T21:48:37.820Z,100587.59
2022-10-14T21:51:06.925Z,100592.06
2022-10-14T21:53:36.254Z,100592.06
2022-10-14T21:56:04.106Z,100590.41
2022-10-14T21:58:31.850Z,100591.22
2022-10-14T22:01:04.773Z,100592.22
2022-10-14T22:03:32.790Z,100588.72
2022-10-14T22:06:01.177Z,100594.03
2022-10-14T22:08:32.987Z,100587.06
2022-10-14T22:11:02.110Z,100590.84
2022-10-14T22:13:29.892Z,100602.28
2022-10-14T22:15:57.887Z,100591.66
2022-10-14T22:18:25.633Z,100599.63
2022-10-14T22:21:01.128Z,100589.84
2022-10-14T22:23:28.837Z,100593.34
2022-10-14T22:26:01.820Z,100582.03
2022-10-14T22:28:30.738Z,100579.38
2022-10-14T22:31:05.080Z,100582.88
2022-10-14T22:33:34.172Z,100589.16
2022-10-14T22:36:09.362Z,100580.69
2022-10-14T22:38:37.140Z,100575.38
2022-10-14T22:41:07.059Z,100576.19
2022-10-14T22:43:35.795Z,100579.84
2022-10-14T22:46:04.937Z,100572.84
2022-10-14T22:48:32.685Z,100582.63
2022-10-14T22:51:04.183Z,100584.44
2022-10-14T22:53:31.983Z,100580.97
2022-10-14T22:55:59.933Z,100581.94
2022-10-14T22:58:29.054Z,100582.78
2022-10-14T23:00:56.844Z,100582.09
2022-10-14T23:03:25.512Z,100582.25
2022-10-14T23:05:53.103Z,100570.94
2022-10-14T23:08:21.121Z,100567.59
2022-10-14T23:10:48.770Z,100570.94
2022-10-14T23:13:16.537Z,100571.25
2022-10-14T23:15:55.658Z,100567.22
2022-10-14T23:18:23.454Z,100564.09
2022-10-14T23:20:51.270Z,100563.72
2022-10-14T23:23:18.973Z,100559.53
2022-10-14T23:25:46.684Z,100564.84
2022-10-14T23:28:14.729Z,100561.22
2022-10-14T23:30:42.534Z,100563.03
2022-10-14T23:33:12.661Z,100566.00
2022-10-14T23:35:40.294Z,100565.00
2022-10-14T23:38:07.921Z,100572.16
2022-10-14T23:40:35.677Z,100565.84
2022-10-14T23:43:03.236Z,100564.84
2022-10-14T23:45:30.919Z,100559.69
2022-10-14T23:47:58.591Z,100555.22
2022-10-14T23:50:27.625Z,100550.91
2022-10-14T23:52:55.198Z,100550.91
2022-10-14T23:55:22.852Z,100551.88
2022-10-14T23:57:50.605Z,100556.50
